sensor_id;sensor_type;location;lat;lon;timestamp;P1;durP1;ratioP1;P2;durP2;ratioP2
4744;SDS011;2386;42.138;24.746;2023-08-08T00:02:05;9.10;;;3.80;;
4744;SDS011;2386;42.138;24.746;2023-08-08T00:04:31;12.83;;;4.67;;
4744;SDS011;2386;42.138;24.746;2023-08-08T00:06:56;14.30;;;3.93;;
4744;SDS011;2386;42.138;24.746;2023-08-08T00:09:22;7.97;;;3.47;;
4744;SDS011;2386;42.138;24.746;2023-08-08T00:11:47;4.97;;;2.83;;
4744;SDS011;2386;42.138;24.746;2023-08-08T00:14:13;9.90;;;3.27;;
4744;SDS011;2386;42.138;24.746;2023-08-08T00:16:39;18.47;;;5.00;;
4744;SDS011;2386;42.138;24.746;2023-08-08T00:19:05;7.53;;;3.50;;
4744;SDS011;2386;42.138;24.746;2023-08-08T00:21:31;9.77;;;3.77;;
4744;SDS011;2386;42.138;24.746;2023-08-08T00:23:56;9.53;;;4.03;;
4744;SDS011;2386;42.138;24.746;2023-08-08T00:26:21;13.70;;;3.50;;
4744;SDS011;2386;42.138;24.746;2023-08-08T00:28:47;9.73;;;4.17;;
4744;SDS011;2386;42.138;24.746;2023-08-08T00:31:12;20.37;;;5.43;;
4744;SDS011;2386;42.138;24.746;2023-08-08T00:33:37;29.50;;;5.47;;
4744;SDS011;2386;42.138;24.746;2023-08-08T00:36:03;7.00;;;3.80;;
4744;SDS011;2386;42.138;24.746;2023-08-08T00:38:28;3.40;;;2.40;;
4744;SDS011;2386;42.138;24.746;2023-08-08T00:40:54;9.60;;;3.60;;
4744;SDS011;2386;42.138;24.746;2023-08-08T00:43:19;11.73;;;3.50;;
4744;SDS011;2386;42.138;24.746;2023-08-08T00:45:45;7.50;;;3.53;;
4744;SDS011;2386;42.138;24.746;2023-08-08T00:48:10;7.77;;;3.43;;
4744;SDS011;2386;42.138;24.746;2023-08-08T00:50:36;8.87;;;3.40;;
4744;SDS011;2386;42.138;24.746;2023-08-08T00:53:05;17.67;;;5.00;;
4744;SDS011;2386;42.138;24.746;2023-08-08T00:55:31;9.60;;;3.40;;
4744;SDS011;2386;42.138;24.746;2023-08-08T00:57:57;11.33;;;4.07;;
4744;SDS011;2386;42.138;24.746;2023-08-08T01:00:22;16.97;;;4.53;;
4744;SDS011;2386;42.138;24.746;2023-08-08T01:02:47;21.67;;;4.57;;
4744;SDS011;2386;42.138;24.746;2023-08-08T01:05:13;10.00;;;3.70;;
4744;SDS011;2386;42.138;24.746;2023-08-08T01:07:52;6.77;;;3.33;;
4744;SDS011;2386;42.138;24.746;2023-08-08T01:10:26;7.90;;;2.93;;
4744;SDS011;2386;42.138;24.746;2023-08-08T01:12:57;2.27;;;2.07;;
4744;SDS011;2386;42.138;24.746;2023-08-08T01:15:27;7.60;;;2.77;;
4744;SDS011;2386;42.138;24.746;2023-08-08T01:17:57;9.50;;;3.33;;
4744;SDS011;2386;42.138;24.746;2023-08-08T01:20:23;3.20;;;2.03;;
4744;SDS011;2386;42.138;24.746;2023-08-08T01:25:23;9.80;;;3.60;;
4744;SDS011;2386;42.138;24.746;2023-08-08T01:27:48;4.33;;;2.47;;
4744;SDS011;2386;42.138;24.746;2023-08-08T01:30:14;3.90;;;2.10;;
4744;SDS011;2386;42.138;24.746;2023-08-08T01:32:40;10.80;;;2.70;;
4744;SDS011;2386;42.138;24.746;2023-08-08T01:35:05;19.93;;;4.27;;
4744;SDS011;2386;42.138;24.746;2023-08-08T01:37:44;23.27;;;3.73;;
4744;SDS011;2386;42.138;24.746;2023-08-08T01:40:15;9.63;;;2.57;;
4744;SDS011;2386;42.138;24.746;2023-08-08T01:42:43;5.13;;;1.80;;
4744;SDS011;2386;42.138;24.746;2023-08-08T01:45:10;10.90;;;2.47;;
4744;SDS011;2386;42.138;24.746;2023-08-08T01:47:36;6.10;;;2.57;;
4744;SDS011;2386;42.138;24.746;2023-08-08T01:50:02;5.90;;;2.53;;
4744;SDS011;2386;42.138;24.746;2023-08-08T01:52:28;4.70;;;2.40;;
4744;SDS011;2386;42.138;24.746;2023-08-08T01:54:53;9.03;;;3.20;;
4744;SDS011;2386;42.138;24.746;2023-08-08T01:57:18;4.93;;;2.30;;
4744;SDS011;2386;42.138;24.746;2023-08-08T01:59:47;9.40;;;2.80;;
4744;SDS011;2386;42.138;24.746;2023-08-08T02:02:12;4.60;;;1.97;;
4744;SDS011;2386;42.138;24.746;2023-08-08T02:04:38;19.37;;;4.23;;
4744;SDS011;2386;42.138;24.746;2023-08-08T02:07:03;11.13;;;3.13;;
4744;SDS011;2386;42.138;24.746;2023-08-08T02:09:29;14.13;;;3.50;;
4744;SDS011;2386;42.138;24.746;2023-08-08T02:11:54;5.10;;;1.90;;
4744;SDS011;2386;42.138;24.746;2023-08-08T02:14:19;8.40;;;2.80;;
4744;SDS011;2386;42.138;24.746;2023-08-08T02:16:45;8.50;;;3.00;;
4744;SDS011;2386;42.138;24.746;2023-08-08T02:19:10;4.03;;;2.30;;
4744;SDS011;2386;42.138;24.746;2023-08-08T02:21:36;10.67;;;3.27;;
4744;SDS011;2386;42.138;24.746;2023-08-08T02:24:01;12.23;;;2.93;;
4744;SDS011;2386;42.138;24.746;2023-08-08T02:26:27;16.70;;;3.73;;
4744;SDS011;2386;42.138;24.746;2023-08-08T02:28:52;16.20;;;3.87;;
4744;SDS011;2386;42.138;24.746;2023-08-08T02:31:17;14.10;;;4.07;;
4744;SDS011;2386;42.138;24.746;2023-08-08T02:33:47;20.07;;;4.80;;
4744;SDS011;2386;42.138;24.746;2023-08-08T02:36:14;33.03;;;5.20;;
4744;SDS011;2386;42.138;24.746;2023-08-08T02:38:40;4.00;;;2.60;;
4744;SDS011;2386;42.138;24.746;2023-08-08T02:41:05;12.07;;;4.17;;
4744;SDS011;2386;42.138;24.746;2023-08-08T02:43:31;11.37;;;3.27;;
4744;SDS011;2386;42.138;24.746;2023-08-08T02:45:57;14.03;;;4.53;;
4744;SDS011;2386;42.138;24.746;2023-08-08T02:48:24;13.60;;;4.73;;
4744;SDS011;2386;42.138;24.746;2023-08-08T02:50:50;6.53;;;3.77;;
4744;SDS011;2386;42.138;24.746;2023-08-08T02:53:15;8.73;;;5.17;;
4744;SDS011;2386;42.138;24.746;2023-08-08T02:55:40;12.27;;;4.70;;
4744;SDS011;2386;42.138;24.746;2023-08-08T02:58:06;18.93;;;4.90;;
4744;SDS011;2386;42.138;24.746;2023-08-08T03:00:31;8.43;;;3.43;;
4744;SDS011;2386;42.138;24.746;2023-08-08T03:02:57;10.30;;;4.20;;
4744;SDS011;2386;42.138;24.746;2023-08-08T03:05:22;12.23;;;3.30;;
4744;SDS011;2386;42.138;24.746;2023-08-08T03:07:47;6.17;;;2.93;;
4744;SDS011;2386;42.138;24.746;2023-08-08T03:10:13;11.33;;;4.23;;
4744;SDS011;2386;42.138;24.746;2023-08-08T03:12:38;12.90;;;3.37;;
4744;SDS011;2386;42.138;24.746;2023-08-08T03:15:04;13.33;;;4.13;;
4744;SDS011;2386;42.138;24.746;2023-08-08T03:17:30;19.43;;;5.03;;
4744;SDS011;2386;42.138;24.746;2023-08-08T03:19:56;22.87;;;6.63;;
4744;SDS011;2386;42.138;24.746;2023-08-08T03:22:21;13.97;;;4.23;;
4744;SDS011;2386;42.138;24.746;2023-08-08T03:24:46;10.03;;;3.43;;
4744;SDS011;2386;42.138;24.746;2023-08-08T03:27:12;21.63;;;4.67;;
4744;SDS011;2386;42.138;24.746;2023-08-08T03:29:37;17.87;;;4.87;;
4744;SDS011;2386;42.138;24.746;2023-08-08T03:32:03;8.07;;;3.57;;
4744;SDS011;2386;42.138;24.746;2023-08-08T03:34:29;8.80;;;3.60;;
4744;SDS011;2386;42.138;24.746;2023-08-08T03:36:55;6.40;;;3.70;;
4744;SDS011;2386;42.138;24.746;2023-08-08T03:39:21;11.03;;;4.70;;
4744;SDS011;2386;42.138;24.746;2023-08-08T03:41:46;6.20;;;4.73;;
4744;SDS011;2386;42.138;24.746;2023-08-08T03:44:12;34.10;;;26.70;;
4744;SDS011;2386;42.138;24.746;2023-08-08T03:46:37;41.63;;;37.30;;
4744;SDS011;2386;42.138;24.746;2023-08-08T03:49:02;43.80;;;40.40;;
4744;SDS011;2386;42.138;24.746;2023-08-08T03:51:28;13.40;;;6.60;;
4744;SDS011;2386;42.138;24.746;2023-08-08T03:53:54;46.63;;;42.53;;
4744;SDS011;2386;42.138;24.746;2023-08-08T03:56:19;26.03;;;23.47;;
4744;SDS011;2386;42.138;24.746;2023-08-08T03:58:44;43.87;;;40.13;;
4744;SDS011;2386;42.138;24.746;2023-08-08T04:01:10;57.23;;;52.80;;
4744;SDS011;2386;42.138;24.746;2023-08-08T04:03:35;9.03;;;5.10;;
4744;SDS011;2386;42.138;24.746;2023-08-08T04:06:02;13.07;;;8.10;;
4744;SDS011;2386;42.138;24.746;2023-08-08T04:08:27;13.30;;;5.23;;
4744;SDS011;2386;42.138;24.746;2023-08-08T04:10:53;19.27;;;5.70;;
4744;SDS011;2386;42.138;24.746;2023-08-08T04:13:19;17.67;;;5.43;;
4744;SDS011;2386;42.138;24.746;2023-08-08T04:15:44;14.80;;;13.23;;
4744;SDS011;2386;42.138;24.746;2023-08-08T04:18:10;10.23;;;7.80;;
4744;SDS011;2386;42.138;24.746;2023-08-08T04:20:36;23.70;;;20.57;;
4744;SDS011;2386;42.138;24.746;2023-08-08T04:23:01;36.60;;;20.57;;
4744;SDS011;2386;42.138;24.746;2023-08-08T04:25:27;48.07;;;10.23;;
4744;SDS011;2386;42.138;24.746;2023-08-08T04:27:52;28.07;;;9.73;;
4744;SDS011;2386;42.138;24.746;2023-08-08T04:30:18;35.90;;;26.63;;
4744;SDS011;2386;42.138;24.746;2023-08-08T04:32:43;32.23;;;19.40;;
4744;SDS011;2386;42.138;24.746;2023-08-08T04:35:09;29.37;;;18.03;;
4744;SDS011;2386;42.138;24.746;2023-08-08T04:37:34;26.80;;;8.80;;
4744;SDS011;2386;42.138;24.746;2023-08-08T04:39:59;49.13;;;44.90;;
4744;SDS011;2386;42.138;24.746;2023-08-08T04:42:25;35.40;;;22.17;;
4744;SDS011;2386;42.138;24.746;2023-08-08T04:44:50;23.17;;;8.67;;
4744;SDS011;2386;42.138;24.746;2023-08-08T04:47:16;23.37;;;7.90;;
4744;SDS011;2386;42.138;24.746;2023-08-08T04:49:41;16.93;;;10.80;;
4744;SDS011;2386;42.138;24.746;2023-08-08T04:52:06;13.77;;;10.70;;
4744;SDS011;2386;42.138;24.746;2023-08-08T04:54:32;23.20;;;11.60;;
4744;SDS011;2386;42.138;24.746;2023-08-08T04:56:57;20.43;;;10.10;;
4744;SDS011;2386;42.138;24.746;2023-08-08T04:59:24;21.30;;;10.80;;
4744;SDS011;2386;42.138;24.746;2023-08-08T05:01:49;22.33;;;13.93;;
4744;SDS011;2386;42.138;24.746;2023-08-08T05:04:15;35.67;;;13.90;;
4744;SDS011;2386;42.138;24.746;2023-08-08T05:06:40;22.50;;;9.73;;
4744;SDS011;2386;42.138;24.746;2023-08-08T05:09:06;18.33;;;10.23;;
4744;SDS011;2386;42.138;24.746;2023-08-08T05:11:34;24.97;;;14.13;;
4744;SDS011;2386;42.138;24.746;2023-08-08T05:14:00;51.60;;;17.17;;
4744;SDS011;2386;42.138;24.746;2023-08-08T05:16:25;44.90;;;28.53;;
4744;SDS011;2386;42.138;24.746;2023-08-08T05:18:50;40.87;;;21.50;;
4744;SDS011;2386;42.138;24.746;2023-08-08T05:21:16;38.43;;;26.23;;
4744;SDS011;2386;42.138;24.746;2023-08-08T05:23:41;20.53;;;10.20;;
4744;SDS011;2386;42.138;24.746;2023-08-08T05:26:07;17.53;;;8.17;;
4744;SDS011;2386;42.138;24.746;2023-08-08T05:28:32;18.30;;;7.60;;
4744;SDS011;2386;42.138;24.746;2023-08-08T05:30:57;19.03;;;8.60;;
4744;SDS011;2386;42.138;24.746;2023-08-08T05:33:24;22.83;;;8.90;;
4744;SDS011;2386;42.138;24.746;2023-08-08T05:35:49;22.00;;;8.73;;
4744;SDS011;2386;42.138;24.746;2023-08-08T05:38:14;21.60;;;6.00;;
4744;SDS011;2386;42.138;24.746;2023-08-08T05:40:41;19.63;;;6.80;;
4744;SDS011;2386;42.138;24.746;2023-08-08T05:43:06;30.97;;;7.40;;
4744;SDS011;2386;42.138;24.746;2023-08-08T05:45:33;35.10;;;8.23;;
4744;SDS011;2386;42.138;24.746;2023-08-08T05:47:59;31.17;;;7.70;;
4744;SDS011;2386;42.138;24.746;2023-08-08T05:50:26;24.50;;;7.27;;
4744;SDS011;2386;42.138;24.746;2023-08-08T05:52:52;29.10;;;9.13;;
4744;SDS011;2386;42.138;24.746;2023-08-08T05:55:17;26.20;;;11.17;;
4744;SDS011;2386;42.138;24.746;2023-08-08T05:57:43;29.13;;;8.50;;
4744;SDS011;2386;42.138;24.746;2023-08-08T06:00:08;21.53;;;7.83;;
4744;SDS011;2386;42.138;24.746;2023-08-08T06:02:36;20.53;;;7.10;;
4744;SDS011;2386;42.138;24.746;2023-08-08T06:05:02;24.40;;;7.70;;
4744;SDS011;2386;42.138;24.746;2023-08-08T06:07:27;13.63;;;5.53;;
4744;SDS011;2386;42.138;24.746;2023-08-08T06:09:53;25.53;;;8.03;;
4744;SDS011;2386;42.138;24.746;2023-08-08T06:12:18;16.10;;;6.17;;
4744;SDS011;2386;42.138;24.746;2023-08-08T06:14:44;17.63;;;6.73;;
4744;SDS011;2386;42.138;24.746;2023-08-08T06:17:09;20.50;;;7.43;;
4744;SDS011;2386;42.138;24.746;2023-08-08T06:19:34;28.97;;;14.50;;
4744;SDS011;2386;42.138;24.746;2023-08-08T06:22:00;24.33;;;10.73;;
4744;SDS011;2386;42.138;24.746;2023-08-08T06:24:26;29.73;;;23.63;;
4744;SDS011;2386;42.138;24.746;2023-08-08T06:26:52;128.53;;;117.67;;
4744;SDS011;2386;42.138;24.746;2023-08-08T06:29:17;204.27;;;187.07;;
4744;SDS011;2386;42.138;24.746;2023-08-08T06:31:43;246.03;;;225.00;;
4744;SDS011;2386;42.138;24.746;2023-08-08T06:34:08;197.20;;;180.83;;
4744;SDS011;2386;42.138;24.746;2023-08-08T06:36:34;185.63;;;170.80;;
4744;SDS011;2386;42.138;24.746;2023-08-08T06:38:59;85.97;;;78.40;;
4744;SDS011;2386;42.138;24.746;2023-08-08T06:41:25;80.63;;;73.13;;
4744;SDS011;2386;42.138;24.746;2023-08-08T06:43:50;52.77;;;48.77;;
4744;SDS011;2386;42.138;24.746;2023-08-08T06:46:16;44.00;;;34.57;;
4744;SDS011;2386;42.138;24.746;2023-08-08T06:48:44;43.47;;;39.37;;
4744;SDS011;2386;42.138;24.746;2023-08-08T06:51:10;45.20;;;41.17;;
4744;SDS011;2386;42.138;24.746;2023-08-08T06:53:36;51.27;;;46.20;;
4744;SDS011;2386;42.138;24.746;2023-08-08T06:56:01;45.20;;;41.40;;
4744;SDS011;2386;42.138;24.746;2023-08-08T06:58:27;34.50;;;24.73;;
4744;SDS011;2386;42.138;24.746;2023-08-08T07:00:52;39.60;;;19.93;;
4744;SDS011;2386;42.138;24.746;2023-08-08T07:03:17;24.77;;;18.13;;
4744;SDS011;2386;42.138;24.746;2023-08-08T07:05:43;40.50;;;25.67;;
4744;SDS011;2386;42.138;24.746;2023-08-08T07:08:08;28.03;;;17.30;;
4744;SDS011;2386;42.138;24.746;2023-08-08T07:10:34;30.57;;;22.70;;
4744;SDS011;2386;42.138;24.746;2023-08-08T07:13:00;18.70;;;15.90;;
4744;SDS011;2386;42.138;24.746;2023-08-08T07:15:26;45.73;;;20.37;;
4744;SDS011;2386;42.138;24.746;2023-08-08T07:17:52;25.40;;;19.33;;
4744;SDS011;2386;42.138;24.746;2023-08-08T07:20:18;24.03;;;21.93;;
4744;SDS011;2386;42.138;24.746;2023-08-08T07:22:43;31.70;;;28.27;;
4744;SDS011;2386;42.138;24.746;2023-08-08T07:25:08;77.10;;;34.60;;
4744;SDS011;2386;42.138;24.746;2023-08-08T07:27:34;29.13;;;26.43;;
4744;SDS011;2386;42.138;24.746;2023-08-08T07:29:59;44.23;;;34.23;;
4744;SDS011;2386;42.138;24.746;2023-08-08T07:32:27;34.63;;;30.60;;
4744;SDS011;2386;42.138;24.746;2023-08-08T07:34:52;31.30;;;28.13;;
4744;SDS011;2386;42.138;24.746;2023-08-08T07:37:17;31.77;;;19.47;;
4744;SDS011;2386;42.138;24.746;2023-08-08T07:39:43;36.93;;;27.70;;
4744;SDS011;2386;42.138;24.746;2023-08-08T07:42:08;25.93;;;23.43;;
4744;SDS011;2386;42.138;24.746;2023-08-08T07:44:33;40.70;;;36.63;;
4744;SDS011;2386;42.138;24.746;2023-08-08T07:47:03;30.03;;;27.90;;
4744;SDS011;2386;42.138;24.746;2023-08-08T07:49:35;57.97;;;52.67;;
4744;SDS011;2386;42.138;24.746;2023-08-08T07:52:00;76.67;;;69.63;;
4744;SDS011;2386;42.138;24.746;2023-08-08T07:54:25;77.77;;;70.33;;
4744;SDS011;2386;42.138;24.746;2023-08-08T07:56:51;69.07;;;60.67;;
4744;SDS011;2386;42.138;24.746;2023-08-08T07:59:16;64.07;;;58.23;;
4744;SDS011;2386;42.138;24.746;2023-08-08T08:01:41;96.03;;;86.23;;
4744;SDS011;2386;42.138;24.746;2023-08-08T08:04:07;64.70;;;55.27;;
4744;SDS011;2386;42.138;24.746;2023-08-08T08:06:32;31.70;;;28.60;;
4744;SDS011;2386;42.138;24.746;2023-08-08T08:08:58;14.33;;;12.10;;
4744;SDS011;2386;42.138;24.746;2023-08-08T08:11:23;16.00;;;13.40;;
4744;SDS011;2386;42.138;24.746;2023-08-08T08:13:49;29.97;;;18.20;;
4744;SDS011;2386;42.138;24.746;2023-08-08T08:16:14;59.67;;;53.93;;
4744;SDS011;2386;42.138;24.746;2023-08-08T08:18:40;136.60;;;126.57;;
4744;SDS011;2386;42.138;24.746;2023-08-08T08:21:05;157.13;;;144.97;;
4744;SDS011;2386;42.138;24.746;2023-08-08T08:23:31;110.27;;;102.57;;
4744;SDS011;2386;42.138;24.746;2023-08-08T08:25:57;68.67;;;62.83;;
4744;SDS011;2386;42.138;24.746;2023-08-08T08:28:23;95.07;;;86.27;;
4744;SDS011;2386;42.138;24.746;2023-08-08T08:30:48;118.80;;;106.07;;
4744;SDS011;2386;42.138;24.746;2023-08-08T08:33:14;108.07;;;98.80;;
4744;SDS011;2386;42.138;24.746;2023-08-08T08:35:40;87.50;;;79.80;;
4744;SDS011;2386;42.138;24.746;2023-08-08T08:38:05;85.73;;;76.73;;
4744;SDS011;2386;42.138;24.746;2023-08-08T08:40:37;123.03;;;113.97;;
4744;SDS011;2386;42.138;24.746;2023-08-08T08:43:04;107.23;;;98.63;;
4744;SDS011;2386;42.138;24.746;2023-08-08T08:45:31;95.07;;;86.73;;
4744;SDS011;2386;42.138;24.746;2023-08-08T08:47:59;151.57;;;138.13;;
4744;SDS011;2386;42.138;24.746;2023-08-08T08:50:28;240.87;;;220.13;;
4744;SDS011;2386;42.138;24.746;2023-08-08T08:52:58;179.87;;;165.37;;
4744;SDS011;2386;42.138;24.746;2023-08-08T08:55:24;319.07;;;291.87;;
4744;SDS011;2386;42.138;24.746;2023-08-08T08:57:51;117.93;;;107.57;;
4744;SDS011;2386;42.138;24.746;2023-08-08T09:00:18;175.13;;;160.10;;
4744;SDS011;2386;42.138;24.746;2023-08-08T09:02:43;97.63;;;80.30;;
4744;SDS011;2386;42.138;24.746;2023-08-08T09:05:09;143.83;;;84.33;;
4744;SDS011;2386;42.138;24.746;2023-08-08T09:07:36;157.40;;;142.17;;
4744;SDS011;2386;42.138;24.746;2023-08-08T09:10:02;111.37;;;101.30;;
4744;SDS011;2386;42.138;24.746;2023-08-08T09:12:28;172.97;;;159.57;;
4744;SDS011;2386;42.138;24.746;2023-08-08T09:14:56;232.40;;;212.67;;
4744;SDS011;2386;42.138;24.746;2023-08-08T09:17:26;193.63;;;178.20;;
4744;SDS011;2386;42.138;24.746;2023-08-08T09:19:53;82.97;;;75.80;;
4744;SDS011;2386;42.138;24.746;2023-08-08T09:22:19;155.83;;;142.67;;
4744;SDS011;2386;42.138;24.746;2023-08-08T09:24:45;42.43;;;30.77;;
4744;SDS011;2386;42.138;24.746;2023-08-08T09:27:12;24.33;;;8.67;;
4744;SDS011;2386;42.138;24.746;2023-08-08T09:29:38;17.77;;;4.70;;
4744;SDS011;2386;42.138;24.746;2023-08-08T09:32:06;29.67;;;6.57;;
4744;SDS011;2386;42.138;24.746;2023-08-08T09:34:32;11.00;;;3.97;;
4744;SDS011;2386;42.138;24.746;2023-08-08T09:36:58;13.63;;;3.70;;
4744;SDS011;2386;42.138;24.746;2023-08-08T09:39:25;25.27;;;6.37;;
4744;SDS011;2386;42.138;24.746;2023-08-08T09:41:50;33.90;;;6.77;;
4744;SDS011;2386;42.138;24.746;2023-08-08T09:44:23;22.80;;;5.40;;
4744;SDS011;2386;42.138;24.746;2023-08-08T09:46:49;19.23;;;5.60;;
4744;SDS011;2386;42.138;24.746;2023-08-08T09:49:15;18.63;;;6.20;;
4744;SDS011;2386;42.138;24.746;2023-08-08T09:51:40;11.30;;;4.93;;
4744;SDS011;2386;42.138;24.746;2023-08-08T09:54:06;10.37;;;4.43;;
4744;SDS011;2386;42.138;24.746;2023-08-08T09:56:33;45.20;;;21.30;;
4744;SDS011;2386;42.138;24.746;2023-08-08T09:59:05;20.97;;;5.37;;
4744;SDS011;2386;42.138;24.746;2023-08-08T10:01:32;23.93;;;5.00;;
4744;SDS011;2386;42.138;24.746;2023-08-08T10:03:58;17.90;;;4.47;;
4744;SDS011;2386;42.138;24.746;2023-08-08T10:06:24;23.57;;;5.33;;
4744;SDS011;2386;42.138;24.746;2023-08-08T10:08:50;29.73;;;6.10;;
4744;SDS011;2386;42.138;24.746;2023-08-08T10:11:16;24.23;;;5.00;;
4744;SDS011;2386;42.138;24.746;2023-08-08T10:13:47;27.00;;;5.63;;
4744;SDS011;2386;42.138;24.746;2023-08-08T10:16:15;17.97;;;4.23;;
4744;SDS011;2386;42.138;24.746;2023-08-08T10:18:41;26.43;;;5.50;;
4744;SDS011;2386;42.138;24.746;2023-08-08T10:21:07;18.40;;;4.63;;
4744;SDS011;2386;42.138;24.746;2023-08-08T10:23:35;14.63;;;3.53;;
4744;SDS011;2386;42.138;24.746;2023-08-08T10:26:02;7.93;;;3.30;;
4744;SDS011;2386;42.138;24.746;2023-08-08T10:28:28;22.13;;;5.00;;
4744;SDS011;2386;42.138;24.746;2023-08-08T10:30:55;16.23;;;4.07;;
4744;SDS011;2386;42.138;24.746;2023-08-08T10:33:26;18.40;;;4.10;;
4744;SDS011;2386;42.138;24.746;2023-08-08T10:35:57;6.73;;;2.87;;
4744;SDS011;2386;42.138;24.746;2023-08-08T10:41:18;16.53;;;4.20;;
4744;SDS011;2386;42.138;24.746;2023-08-08T10:43:52;30.13;;;5.70;;
4744;SDS011;2386;42.138;24.746;2023-08-08T10:46:29;16.03;;;3.67;;
4744;SDS011;2386;42.138;24.746;2023-08-08T10:48:57;22.47;;;4.53;;
4744;SDS011;2386;42.138;24.746;2023-08-08T10:51:38;27.40;;;6.17;;
4744;SDS011;2386;42.138;24.746;2023-08-08T10:54:04;19.60;;;4.37;;
4744;SDS011;2386;42.138;24.746;2023-08-08T10:56:37;17.80;;;4.13;;
4744;SDS011;2386;42.138;24.746;2023-08-08T10:59:11;10.50;;;2.83;;
4744;SDS011;2386;42.138;24.746;2023-08-08T11:01:40;29.33;;;5.70;;
4744;SDS011;2386;42.138;24.746;2023-08-08T11:04:05;55.67;;;8.83;;
4744;SDS011;2386;42.138;24.746;2023-08-08T11:06:32;23.97;;;4.47;;
4744;SDS011;2386;42.138;24.746;2023-08-08T11:09:00;17.23;;;4.00;;
4744;SDS011;2386;42.138;24.746;2023-08-08T11:11:26;56.50;;;8.30;;
4744;SDS011;2386;42.138;24.746;2023-08-08T11:13:52;19.03;;;3.70;;
4744;SDS011;2386;42.138;24.746;2023-08-08T11:16:17;59.90;;;9.67;;
4744;SDS011;2386;42.138;24.746;2023-08-08T11:18:44;14.30;;;3.30;;
4744;SDS011;2386;42.138;24.746;2023-08-08T11:21:19;11.07;;;3.00;;
4744;SDS011;2386;42.138;24.746;2023-08-08T11:23:45;22.13;;;4.67;;
4744;SDS011;2386;42.138;24.746;2023-08-08T11:26:11;9.57;;;3.53;;
4744;SDS011;2386;42.138;24.746;2023-08-08T11:28:36;10.37;;;3.00;;
4744;SDS011;2386;42.138;24.746;2023-08-08T11:31:03;4.97;;;2.47;;
4744;SDS011;2386;42.138;24.746;2023-08-08T11:33:28;11.83;;;3.20;;
4744;SDS011;2386;42.138;24.746;2023-08-08T11:35:53;15.73;;;4.07;;
4744;SDS011;2386;42.138;24.746;2023-08-08T11:38:19;9.87;;;3.00;;
4744;SDS011;2386;42.138;24.746;2023-08-08T11:40:44;35.77;;;6.50;;
4744;SDS011;2386;42.138;24.746;2023-08-08T11:43:10;13.60;;;3.33;;
4744;SDS011;2386;42.138;24.746;2023-08-08T11:45:37;9.77;;;3.10;;
4744;SDS011;2386;42.138;24.746;2023-08-08T11:48:02;15.90;;;4.10;;
4744;SDS011;2386;42.138;24.746;2023-08-08T11:50:28;6.40;;;2.87;;
4744;SDS011;2386;42.138;24.746;2023-08-08T11:52:55;15.57;;;3.87;;
4744;SDS011;2386;42.138;24.746;2023-08-08T11:55:21;10.33;;;3.30;;
4744;SDS011;2386;42.138;24.746;2023-08-08T11:57:53;5.33;;;2.23;;
4744;SDS011;2386;42.138;24.746;2023-08-08T12:00:21;27.47;;;5.23;;
4744;SDS011;2386;42.138;24.746;2023-08-08T12:02:52;14.40;;;4.07;;
4744;SDS011;2386;42.138;24.746;2023-08-08T12:05:20;10.20;;;3.30;;
4744;SDS011;2386;42.138;24.746;2023-08-08T12:07:47;11.97;;;3.67;;
4744;SDS011;2386;42.138;24.746;2023-08-08T12:10:14;29.87;;;5.87;;
4744;SDS011;2386;42.138;24.746;2023-08-08T12:12:42;8.70;;;2.90;;
4744;SDS011;2386;42.138;24.746;2023-08-08T12:15:08;15.20;;;4.33;;
4744;SDS011;2386;42.138;24.746;2023-08-08T12:17:34;11.53;;;3.40;;
4744;SDS011;2386;42.138;24.746;2023-08-08T12:20:03;11.07;;;3.17;;
4744;SDS011;2386;42.138;24.746;2023-08-08T12:22:30;18.27;;;9.57;;
4744;SDS011;2386;42.138;24.746;2023-08-08T12:24:56;9.67;;;3.57;;
4744;SDS011;2386;42.138;24.746;2023-08-08T12:27:21;6.63;;;2.63;;
4744;SDS011;2386;42.138;24.746;2023-08-08T12:29:47;4.20;;;1.80;;
4744;SDS011;2386;42.138;24.746;2023-08-08T12:32:12;8.53;;;2.87;;
4744;SDS011;2386;42.138;24.746;2023-08-08T12:34:41;17.50;;;4.43;;
4744;SDS011;2386;42.138;24.746;2023-08-08T12:37:06;4.55;;;2.28;;
4744;SDS011;2386;42.138;24.746;2023-08-08T12:39:32;18.42;;;4.45;;
4744;SDS011;2386;42.138;24.746;2023-08-08T12:41:58;12.68;;;3.38;;
4744;SDS011;2386;42.138;24.746;2023-08-08T12:44:23;14.73;;;3.97;;
4744;SDS011;2386;42.138;24.746;2023-08-08T12:46:48;19.30;;;3.73;;
4744;SDS011;2386;42.138;24.746;2023-08-08T12:49:14;10.23;;;3.50;;
4744;SDS011;2386;42.138;24.746;2023-08-08T12:51:39;7.00;;;2.60;;
4744;SDS011;2386;42.138;24.746;2023-08-08T12:54:05;25.87;;;6.07;;
4744;SDS011;2386;42.138;24.746;2023-08-08T12:56:31;31.43;;;19.23;;
4744;SDS011;2386;42.138;24.746;2023-08-08T12:58:56;8.45;;;3.97;;
4744;SDS011;2386;42.138;24.746;2023-08-08T13:01:21;16.37;;;4.00;;
4744;SDS011;2386;42.138;24.746;2023-08-08T13:03:47;27.60;;;16.57;;
4744;SDS011;2386;42.138;24.746;2023-08-08T13:06:12;14.15;;;6.22;;
4744;SDS011;2386;42.138;24.746;2023-08-08T13:08:38;7.05;;;6.40;;
4744;SDS011;2386;42.138;24.746;2023-08-08T13:11:04;14.98;;;8.77;;
4744;SDS011;2386;42.138;24.746;2023-08-08T13:13:30;15.32;;;11.23;;
4744;SDS011;2386;42.138;24.746;2023-08-08T13:15:55;6.97;;;6.32;;
4744;SDS011;2386;42.138;24.746;2023-08-08T13:18:21;13.63;;;8.95;;
4744;SDS011;2386;42.138;24.746;2023-08-08T13:20:46;10.30;;;7.63;;
4744;SDS011;2386;42.138;24.746;2023-08-08T13:23:12;20.55;;;10.60;;
4744;SDS011;2386;42.138;24.746;2023-08-08T13:25:37;14.15;;;11.57;;
4744;SDS011;2386;42.138;24.746;2023-08-08T13:28:03;70.07;;;18.42;;
4744;SDS011;2386;42.138;24.746;2023-08-08T13:30:41;12.93;;;10.85;;
4744;SDS011;2386;42.138;24.746;2023-08-08T13:33:08;8.82;;;8.05;;
4744;SDS011;2386;42.138;24.746;2023-08-08T13:35:33;26.02;;;14.68;;
4744;SDS011;2386;42.138;24.746;2023-08-08T13:37:59;15.73;;;12.63;;
4744;SDS011;2386;42.138;24.746;2023-08-08T13:40:25;18.67;;;10.65;;
4744;SDS011;2386;42.138;24.746;2023-08-08T13:42:50;31.92;;;23.83;;
4744;SDS011;2386;42.138;24.746;2023-08-08T13:45:19;32.58;;;30.33;;
4744;SDS011;2386;42.138;24.746;2023-08-08T13:47:54;27.08;;;25.13;;
4744;SDS011;2386;42.138;24.746;2023-08-08T13:50:19;30.30;;;28.10;;
4744;SDS011;2386;42.138;24.746;2023-08-08T13:52:45;47.35;;;43.53;;
4744;SDS011;2386;42.138;24.746;2023-08-08T13:55:10;50.50;;;45.88;;
4744;SDS011;2386;42.138;24.746;2023-08-08T13:57:35;266.20;;;247.95;;
4744;SDS011;2386;42.138;24.746;2023-08-08T14:00:02;36.28;;;32.88;;
4744;SDS011;2386;42.138;24.746;2023-08-08T14:02:28;28.00;;;25.42;;
4744;SDS011;2386;42.138;24.746;2023-08-08T14:04:54;20.45;;;14.75;;
4744;SDS011;2386;42.138;24.746;2023-08-08T14:07:20;12.68;;;7.60;;
4744;SDS011;2386;42.138;24.746;2023-08-08T14:09:46;21.08;;;9.63;;
4744;SDS011;2386;42.138;24.746;2023-08-08T14:12:12;27.50;;;12.75;;
4744;SDS011;2386;42.138;24.746;2023-08-08T14:14:37;7.07;;;6.15;;
4744;SDS011;2386;42.138;24.746;2023-08-08T14:17:02;10.48;;;8.43;;
4744;SDS011;2386;42.138;24.746;2023-08-08T14:19:28;17.60;;;10.10;;
4744;SDS011;2386;42.138;24.746;2023-08-08T14:21:53;16.75;;;9.48;;
4744;SDS011;2386;42.138;24.746;2023-08-08T14:24:19;24.17;;;9.82;;
4744;SDS011;2386;42.138;24.746;2023-08-08T14:26:45;11.60;;;6.47;;
4744;SDS011;2386;42.138;24.746;2023-08-08T14:29:10;27.30;;;9.40;;
4744;SDS011;2386;42.138;24.746;2023-08-08T14:31:36;27.02;;;13.13;;
4744;SDS011;2386;42.138;24.746;2023-08-08T14:34:01;30.38;;;18.48;;
4744;SDS011;2386;42.138;24.746;2023-08-08T14:36:28;19.92;;;12.70;;
4744;SDS011;2386;42.138;24.746;2023-08-08T14:38:53;22.52;;;20.25;;
4744;SDS011;2386;42.138;24.746;2023-08-08T14:41:19;11.32;;;9.60;;
4744;SDS011;2386;42.138;24.746;2023-08-08T14:43:44;15.63;;;14.05;;